Terminal Aerodrome Forecast
Issued by NWS

Home | Current Version | Previous Version | Text Only | Print | Product List | Glossary On
Versions: 1 2 3 4 5 6 7 8 9 10 11 12 13 14 15 16 17 18 19 20 21 22 23 24 25 26
000
FTUS46 KEKA 191740
TAFCEC
TAF
KCEC 191740Z 1918/2018 15019G30KT P6SM -RA SCT025 OVC035
      WS020/20048KT
      TEMPO 1919/1923 16025G38KT 6SM -RA BR SCT004 OVC025
     FM192300 19014G22KT 3SM -RA BR SCT007 OVC012
     FM200000 18014KT 3SM -SHRA BR SCT005 OVC015
     FM200600 18010G20KT P6SM -SHRA VCTS BKN030CB=

USA.gov is the U.S. government's official web portal to all federal, state and local government web resources and services.